createdAt,value
2018-12-19T00:00:30.483Z,53.20
2018-12-19T00:01:01.535Z,53.20
2018-12-19T00:01:32.649Z,53.80
2018-12-19T00:02:03.687Z,53.10
2018-12-19T00:02:34.736Z,53.20
2018-12-19T00:03:05.870Z,53.10
2018-12-19T00:03:36.912Z,53.10
2018-12-19T00:04:07.948Z,53.10
2018-12-19T00:04:38.983Z,53.00
2018-12-19T00:05:10.031Z,53.00
2018-12-19T00:05:41.079Z,53.00
2018-12-19T00:06:12.239Z,53.00
2018-12-19T00:06:43.280Z,53.00
2018-12-19T00:07:14.334Z,53.00
2018-12-19T00:07:45.374Z,53.00
2018-12-19T00:08:16.455Z,53.00
2018-12-19T00:08:47.511Z,53.60
2018-12-19T00:09:18.568Z,53.60
2018-12-19T00:09:49.611Z,53.00
2018-12-19T00:10:20.663Z,53.00
2018-12-19T00:10:51.732Z,52.90
2018-12-19T00:11:22.771Z,52.90
2018-12-19T00:11:53.815Z,52.90
2018-12-19T00:12:24.868Z,53.00
2018-12-19T00:12:55.895Z,52.90
2018-12-19T00:13:26.935Z,52.90
2018-12-19T00:13:57.980Z,52.90
2018-12-19T00:14:29.025Z,53.00
2018-12-19T00:15:00.059Z,53.00
2018-12-19T00:15:31.116Z,53.00
2018-12-19T00:16:02.186Z,53.00
2018-12-19T00:16:33.347Z,53.00
2018-12-19T00:17:04.376Z,53.00
2018-12-19T00:17:35.423Z,53.00
2018-12-19T00:18:06.464Z,53.00
2018-12-19T00:18:37.507Z,53.00
2018-12-19T00:19:08.577Z,53.00
2018-12-19T00:19:39.587Z,53.10
2018-12-19T00:20:10.627Z,53.10
2018-12-19T00:20:41.679Z,53.10
2018-12-19T00:21:12.723Z,53.10
2018-12-19T00:21:43.771Z,53.20
2018-12-19T00:22:14.820Z,53.10
2018-12-19T00:22:45.864Z,53.20
2018-12-19T00:23:16.907Z,53.20
2018-12-19T00:23:47.956Z,53.20
2018-12-19T00:24:18.988Z,53.60
2018-12-19T00:24:50.035Z,53.30
2018-12-19T00:25:21.087Z,53.30
2018-12-19T00:25:52.123Z,53.30
2018-12-19T00:26:23.171Z,53.30
2018-12-19T00:26:54.216Z,53.30
2018-12-19T00:27:25.267Z,53.50
2018-12-19T00:27:56.303Z,53.30
2018-12-19T00:28:27.347Z,53.20
2018-12-19T00:28:58.394Z,53.20
2018-12-19T00:29:29.431Z,53.10
2018-12-19T00:30:00.471Z,53.10
2018-12-19T00:30:31.501Z,53.80
2018-12-19T00:31:02.541Z,53.00
2018-12-19T00:31:33.592Z,53.10
2018-12-19T00:32:04.647Z,53.00
2018-12-19T00:32:35.687Z,53.00
2018-12-19T00:33:06.724Z,53.00
2018-12-19T00:33:37.759Z,53.00
2018-12-19T00:34:08.827Z,53.60
2018-12-19T00:34:39.871Z,53.00
2018-12-19T00:35:10.923Z,52.90
2018-12-19T00:35:41.963Z,52.90
2018-12-19T00:36:13.006Z,52.90
2018-12-19T00:36:44.057Z,52.90
2018-12-19T00:37:15.093Z,53.00
2018-12-19T00:37:46.152Z,52.90
2018-12-19T00:38:17.193Z,52.90
2018-12-19T00:38:48.302Z,52.90
2018-12-19T00:39:19.336Z,52.90
2018-12-19T00:39:50.385Z,52.90
2018-12-19T00:40:21.414Z,52.90
2018-12-19T00:40:52.456Z,52.90
2018-12-19T00:41:23.528Z,52.30
2018-12-19T00:41:54.568Z,53.00
2018-12-19T00:42:25.608Z,53.00
2018-12-19T00:42:56.644Z,53.00
2018-12-19T00:43:27.689Z,53.00
2018-12-19T00:43:58.742Z,53.00
2018-12-19T00:44:29.788Z,53.60
2018-12-19T00:45:00.827Z,53.00
2018-12-19T00:45:31.875Z,52.90
2018-12-19T00:46:02.959Z,52.90
2018-12-19T00:46:34.012Z,52.90
2018-12-19T00:47:05.054Z,52.90
2018-12-19T00:47:36.087Z,52.90
2018-12-19T00:48:07.128Z,52.90
2018-12-19T00:48:38.169Z,52.90
2018-12-19T00:49:09.259Z,52.90
2018-12-19T00:49:40.295Z,52.90
2018-12-19T00:50:11.340Z,52.90
2018-12-19T00:50:42.380Z,52.90
2018-12-19T00:51:13.441Z,52.90
2018-12-19T00:51:44.499Z,53.00
2018-12-19T00:52:15.547Z,52.90
2018-12-19T00:52:46.623Z,52.90
2018-12-19T00:53:17.672Z,52.90
2018-12-19T00:53:48.738Z,53.00
2018-12-19T00:54:19.764Z,53.00
2018-12-19T00:54:50.801Z,53.00
2018-12-19T00:55:21.845Z,53.00
2018-12-19T00:55:53.008Z,53.00
2018-12-19T00:56:24.032Z,53.00
2018-12-19T00:56:55.094Z,52.90
2018-12-19T00:57:26.218Z,52.90
2018-12-19T00:57:57.251Z,52.90
2018-12-19T00:58:28.292Z,52.90
2018-12-19T00:58:59.326Z,53.00
2018-12-19T00:59:30.368Z,52.90
2018-12-19T01:00:01.415Z,53.00
2018-12-19T01:00:32.451Z,52.90
2018-12-19T01:01:03.497Z,52.90
2018-12-19T01:01:34.544Z,52.90
2018-12-19T01:02:05.591Z,52.90
2018-12-19T01:02:36.624Z,52.90
2018-12-19T01:03:07.679Z,52.90
2018-12-19T01:03:38.724Z,52.90
2018-12-19T01:04:09.784Z,52.90
2018-12-19T01:04:40.824Z,52.90
2018-12-19T01:05:11.890Z,52.90
2018-12-19T01:05:42.931Z,52.80
2018-12-19T01:06:13.964Z,52.80
2018-12-19T01:06:45.015Z,52.90
2018-12-19T01:07:16.058Z,52.90
2018-12-19T01:07:47.132Z,53.00
2018-12-19T01:08:18.180Z,52.90
2018-12-19T01:08:49.231Z,52.90
2018-12-19T01:09:20.298Z,52.90
2018-12-19T01:09:51.316Z,53.00
2018-12-19T01:10:22.356Z,53.00
2018-12-19T01:10:53.411Z,53.00
2018-12-19T01:11:24.523Z,53.00
2018-12-19T01:11:55.597Z,52.90
2018-12-19T01:12:26.647Z,52.90
2018-12-19T01:12:57.719Z,53.00
2018-12-19T01:13:28.775Z,53.00
2018-12-19T01:13:59.815Z,52.90
2018-12-19T01:14:30.876Z,52.90
2018-12-19T01:15:01.916Z,52.90
2018-12-19T01:15:32.952Z,53.00
2018-12-19T01:16:03.996Z,52.90
2018-12-19T01:16:35.039Z,52.90
2018-12-19T01:17:06.098Z,52.90
2018-12-19T01:17:37.239Z,52.90
2018-12-19T01:18:08.286Z,52.90
2018-12-19T01:18:39.314Z,52.90
2018-12-19T01:19:10.359Z,52.90
2018-12-19T01:19:41.399Z,53.00
2018-12-19T01:20:12.455Z,53.00
2018-12-19T01:20:43.493Z,53.00
2018-12-19T01:21:14.532Z,53.00
2018-12-19T01:21:45.581Z,53.00
2018-12-19T01:22:16.620Z,53.00
2018-12-19T01:22:47.663Z,53.00
2018-12-19T01:23:18.701Z,53.00
2018-12-19T01:23:49.739Z,53.00
2018-12-19T01:24:20.782Z,53.00
2018-12-19T01:24:51.827Z,53.00
2018-12-19T01:25:22.875Z,52.90
2018-12-19T01:25:53.928Z,53.00
2018-12-19T01:26:24.964Z,52.90
2018-12-19T01:26:56.019Z,52.90
2018-12-19T01:27:27.058Z,53.60
2018-12-19T01:27:58.107Z,52.90
2018-12-19T01:28:29.156Z,53.60
2018-12-19T01:29:00.195Z,53.00
2018-12-19T01:29:31.263Z,53.00
2018-12-19T01:30:02.299Z,53.00
2018-12-19T01:30:33.350Z,53.00
2018-12-19T01:31:04.387Z,53.10
2018-12-19T01:31:35.424Z,53.00
2018-12-19T01:32:06.503Z,53.00
2018-12-19T01:32:37.568Z,53.00
2018-12-19T01:33:08.614Z,53.60
2018-12-19T01:33:39.647Z,52.90
2018-12-19T01:34:10.691Z,52.90
2018-12-19T01:34:41.727Z,52.90
2018-12-19T01:35:12.770Z,52.90
2018-12-19T01:35:43.815Z,52.90
2018-12-19T01:36:14.859Z,52.90
2018-12-19T01:36:45.903Z,52.90
2018-12-19T01:37:16.977Z,52.80
2018-12-19T01:37:48.008Z,52.80
2018-12-19T01:38:19.126Z,52.80
2018-12-19T01:38:50.160Z,52.80
2018-12-19T01:39:22.548Z,52.80
2018-12-19T01:39:53.850Z,52.80
2018-12-19T01:40:24.862Z,52.80
2018-12-19T01:40:55.904Z,52.80
2018-12-19T01:41:26.953Z,52.80
2018-12-19T01:41:58.003Z,52.80
2018-12-19T01:42:29.116Z,52.80
2018-12-19T01:43:00.189Z,52.80
2018-12-19T01:43:31.300Z,52.80
2018-12-19T01:44:02.347Z,52.80
2018-12-19T01:44:33.387Z,52.80
2018-12-19T01:45:04.440Z,52.80
2018-12-19T01:45:35.472Z,52.80
2018-12-19T01:46:06.511Z,52.90
2018-12-19T01:46:37.548Z,52.90
2018-12-19T01:47:08.599Z,52.90
2018-12-19T01:47:39.688Z,52.90
2018-12-19T01:48:10.728Z,52.90
2018-12-19T01:48:41.841Z,53.00
2018-12-19T01:49:12.896Z,53.60
2018-12-19T01:49:43.938Z,53.00
2018-12-19T01:50:14.993Z,53.00
2018-12-19T01:50:46.019Z,53.00
2018-12-19T01:51:17.055Z,53.00
2018-12-19T01:51:48.134Z,53.00
2018-12-19T01:52:19.199Z,53.00
2018-12-19T01:52:50.249Z,53.00
2018-12-19T01:53:21.295Z,53.00
2018-12-19T01:53:52.343Z,52.90
2018-12-19T01:54:23.413Z,53.00
2018-12-19T01:54:54.460Z,53.00
2018-12-19T01:55:25.500Z,53.00
2018-12-19T01:55:56.548Z,52.90
2018-12-19T01:56:27.615Z,52.90
2018-12-19T01:56:58.682Z,52.90
2018-12-19T01:57:29.835Z,52.80
2018-12-19T01:58:00.899Z,52.80
2018-12-19T01:58:31.934Z,52.80
2018-12-19T01:59:02.984Z,52.80
2018-12-19T01:59:34.036Z,52.80
2018-12-19T02:00:05.071Z,52.80
2018-12-19T02:00:36.118Z,52.80
2018-12-19T02:01:07.164Z,52.80
2018-12-19T02:01:38.220Z,52.80
2018-12-19T02:02:09.254Z,52.80
2018-12-19T02:02:40.310Z,52.80
2018-12-19T02:03:11.356Z,52.70
2018-12-19T02:03:42.398Z,52.70
2018-12-19T02:04:13.437Z,52.70
2018-12-19T02:04:44.480Z,52.70
2018-12-19T02:05:15.519Z,52.70
2018-12-19T02:05:46.584Z,52.70
2018-12-19T02:06:17.604Z,52.70
2018-12-19T02:06:48.652Z,52.70
2018-12-19T02:07:19.712Z,52.70
2018-12-19T02:07:50.755Z,52.70
2018-12-19T02:08:21.795Z,52.70
2018-12-19T02:08:52.834Z,52.70
2018-12-19T02:09:28.886Z,52.90
2018-12-19T02:09:56.934Z,52.80
2018-12-19T02:10:27.980Z,52.80
2018-12-19T02:10:59.035Z,52.80
2018-12-19T02:11:30.075Z,52.80
2018-12-19T02:12:01.116Z,52.80
2018-12-19T02:12:32.199Z,52.80
2018-12-19T02:13:03.235Z,52.80
2018-12-19T02:13:34.341Z,52.80
2018-12-19T02:14:05.370Z,52.80
2018-12-19T02:14:36.435Z,52.60
2018-12-19T02:15:07.447Z,52.90
2018-12-19T02:15:38.507Z,52.90
2018-12-19T02:16:09.532Z,52.90
2018-12-19T02:16:40.572Z,52.90
2018-12-19T02:17:11.608Z,52.90
2018-12-19T02:17:42.654Z,53.00
2018-12-19T02:18:13.731Z,52.90
2018-12-19T02:18:44.770Z,53.00
2018-12-19T02:19:15.811Z,52.90
2018-12-19T02:19:46.855Z,52.90
2018-12-19T02:20:17.918Z,52.90
2018-12-19T02:20:48.975Z,52.90
2018-12-19T02:21:20.032Z,52.80
2018-12-19T02:21:51.091Z,52.80
2018-12-19T02:22:22.236Z,53.00
2018-12-19T02:22:53.282Z,52.80
2018-12-19T02:23:24.319Z,52.70
2018-12-19T02:23:55.364Z,52.70
2018-12-19T02:24:26.436Z,52.70
2018-12-19T02:24:57.500Z,52.70
2018-12-19T02:25:28.569Z,52.70
2018-12-19T02:25:59.668Z,52.70
2018-12-19T02:26:30.754Z,52.70
2018-12-19T02:27:01.808Z,52.70
2018-12-19T02:27:32.862Z,52.70
2018-12-19T02:28:03.912Z,52.70
2018-12-19T02:28:34.956Z,52.70
2018-12-19T02:29:06.036Z,52.70
2018-12-19T02:29:37.098Z,52.70
2018-12-19T02:30:08.167Z,52.70
2018-12-19T02:30:39.282Z,52.70
2018-12-19T02:31:10.328Z,52.80
2018-12-19T02:31:41.388Z,52.70
2018-12-19T02:32:12.427Z,52.80
2018-12-19T02:32:43.480Z,52.80
2018-12-19T02:33:14.540Z,52.80
2018-12-19T02:33:45.587Z,52.80
2018-12-19T02:34:16.669Z,52.80
2018-12-19T02:34:47.852Z,52.80
2018-12-19T02:35:18.961Z,53.30
2018-12-19T02:35:50.000Z,52.80
2018-12-19T02:36:21.069Z,52.80
2018-12-19T02:36:52.108Z,52.90
2018-12-19T02:37:23.147Z,52.90
2018-12-19T02:37:54.212Z,52.90
2018-12-19T02:38:25.249Z,52.90
2018-12-19T02:38:56.293Z,52.90
2018-12-19T02:39:27.336Z,52.90
2018-12-19T02:39:58.380Z,53.00
2018-12-19T02:40:29.465Z,53.00
2018-12-19T02:41:00.580Z,52.90
2018-12-19T02:41:31.623Z,52.90
2018-12-19T02:42:02.667Z,52.90
2018-12-19T02:42:33.812Z,52.80
2018-12-19T02:43:04.859Z,52.90
2018-12-19T02:43:36.048Z,52.80
2018-12-19T02:44:07.119Z,52.80
2018-12-19T02:44:38.171Z,52.80
2018-12-19T02:45:09.223Z,52.80
2018-12-19T02:45:40.285Z,52.80
2018-12-19T02:46:11.448Z,52.80
2018-12-19T02:46:42.499Z,52.80
2018-12-19T02:47:13.561Z,52.80
2018-12-19T02:47:44.630Z,52.70
2018-12-19T02:48:15.773Z,52.80
2018-12-19T02:48:46.835Z,52.70
2018-12-19T02:49:17.894Z,52.70
2018-12-19T02:49:48.940Z,52.70
2018-12-19T02:50:19.968Z,52.80
2018-12-19T02:50:51.016Z,52.70
2018-12-19T02:51:22.054Z,52.70
2018-12-19T02:51:53.115Z,52.70
2018-12-19T02:52:24.156Z,52.70
2018-12-19T02:52:55.192Z,52.80
2018-12-19T02:53:26.244Z,52.70
2018-12-19T02:53:57.336Z,52.70
2018-12-19T02:54:28.478Z,52.70
2018-12-19T02:54:59.524Z,52.70
2018-12-19T02:55:30.571Z,52.70
2018-12-19T02:56:01.616Z,52.70
2018-12-19T02:56:32.665Z,52.70
2018-12-19T02:57:03.784Z,52.70
2018-12-19T02:57:34.824Z,52.70
2018-12-19T02:58:05.868Z,52.70
2018-12-19T02:58:36.907Z,52.80
2018-12-19T02:59:07.962Z,52.70
2018-12-19T02:59:39.102Z,52.70
2018-12-19T03:00:10.139Z,52.80
2018-12-19T03:00:41.189Z,52.80
2018-12-19T03:01:12.240Z,52.90
2018-12-19T03:01:43.292Z,52.90
2018-12-19T03:02:14.334Z,52.90
2018-12-19T03:02:45.439Z,52.90
2018-12-19T03:03:16.512Z,53.00
2018-12-19T03:03:47.554Z,52.90
2018-12-19T03:04:18.664Z,52.90
2018-12-19T03:04:49.728Z,52.90
2018-12-19T03:05:20.777Z,52.90
2018-12-19T03:05:51.900Z,52.90
2018-12-19T03:06:23.044Z,52.90
2018-12-19T03:06:54.096Z,52.80
2018-12-19T03:07:25.147Z,52.90
2018-12-19T03:07:56.189Z,52.80
2018-12-19T03:08:27.223Z,52.80
2018-12-19T03:08:58.263Z,52.70
2018-12-19T03:09:29.299Z,52.70
2018-12-19T03:10:00.343Z,52.70
2018-12-19T03:10:31.389Z,52.70
2018-12-19T03:11:02.423Z,52.70
2018-12-19T03:11:33.470Z,52.80
2018-12-19T03:12:04.531Z,52.80
2018-12-19T03:12:35.572Z,52.80
2018-12-19T03:13:06.688Z,52.80
2018-12-19T03:13:37.749Z,52.80
2018-12-19T03:14:08.864Z,52.70
2018-12-19T03:14:39.985Z,52.70
2018-12-19T03:15:11.080Z,52.70
2018-12-19T03:15:42.116Z,52.70
2018-12-19T03:16:13.155Z,52.80
2018-12-19T03:16:44.229Z,52.70
2018-12-19T03:17:15.284Z,52.70
2018-12-19T03:17:46.317Z,52.70
2018-12-19T03:18:17.393Z,52.20
2018-12-19T03:18:48.440Z,52.80
2018-12-19T03:19:19.504Z,52.70
2018-12-19T03:19:50.566Z,52.70
2018-12-19T03:20:21.629Z,52.70
2018-12-19T03:20:52.733Z,52.70
2018-12-19T03:21:23.787Z,52.60
2018-12-19T03:21:54.852Z,52.60
2018-12-19T03:22:25.887Z,52.60
2018-12-19T03:22:56.943Z,52.60
2018-12-19T03:23:27.971Z,52.60
2018-12-19T03:23:59.021Z,52.60
2018-12-19T03:24:30.071Z,52.60
2018-12-19T03:25:01.197Z,52.50
2018-12-19T03:25:32.315Z,52.50
2018-12-19T03:26:03.359Z,52.50
2018-12-19T03:26:34.410Z,52.50
2018-12-19T03:27:05.455Z,52.50
2018-12-19T03:27:36.522Z,52.50
2018-12-19T03:28:07.588Z,52.50
2018-12-19T03:28:38.653Z,52.60
2018-12-19T03:29:09.718Z,52.60
2018-12-19T03:29:40.783Z,52.60
2018-12-19T03:30:11.846Z,52.60
2018-12-19T03:30:42.995Z,52.70
2018-12-19T03:31:14.105Z,52.70
2018-12-19T03:31:45.154Z,52.70
2018-12-19T03:32:16.216Z,52.70
2018-12-19T03:32:47.366Z,52.80
2018-12-19T03:33:18.403Z,52.80
2018-12-19T03:33:49.455Z,52.80
2018-12-19T03:34:20.517Z,52.80
2018-12-19T03:34:51.564Z,52.80
2018-12-19T03:35:22.614Z,52.80
2018-12-19T03:35:53.644Z,52.80
2018-12-19T03:36:24.704Z,52.80
2018-12-19T03:36:55.812Z,52.80
2018-12-19T03:37:26.851Z,52.80
2018-12-19T03:37:57.890Z,52.80
2018-12-19T03:38:28.931Z,52.80
2018-12-19T03:38:59.966Z,52.80
2018-12-19T03:39:31.020Z,52.80
2018-12-19T03:40:02.138Z,52.90
2018-12-19T03:40:33.248Z,53.40
2018-12-19T03:41:04.279Z,52.80
2018-12-19T03:41:35.401Z,52.70
2018-12-19T03:42:06.438Z,52.70
2018-12-19T03:42:37.484Z,52.80
2018-12-19T03:43:08.527Z,52.80
2018-12-19T03:43:39.580Z,52.80
2018-12-19T03:44:10.647Z,52.80
2018-12-19T03:44:41.723Z,52.80
2018-12-19T03:45:12.754Z,52.90
2018-12-19T03:45:43.884Z,52.80
2018-12-19T03:46:14.995Z,52.80
2018-12-19T03:46:46.048Z,52.70
2018-12-19T03:47:17.104Z,52.70
2018-12-19T03:47:48.215Z,52.70
2018-12-19T03:48:19.255Z,52.70
2018-12-19T03:48:50.296Z,52.60
2018-12-19T03:49:21.334Z,52.60
2018-12-19T03:49:52.386Z,52.60
2018-12-19T03:50:23.427Z,52.60
2018-12-19T03:50:54.479Z,52.60
2018-12-19T03:51:25.519Z,52.60
2018-12-19T03:51:56.555Z,52.50
2018-12-19T03:52:27.632Z,52.50
2018-12-19T03:52:58.704Z,52.50
2018-12-19T03:53:29.768Z,52.50
2018-12-19T03:54:00.820Z,52.50
2018-12-19T03:54:31.867Z,52.50
2018-12-19T03:55:02.902Z,52.50
2018-12-19T03:55:33.947Z,52.50
2018-12-19T03:56:05.025Z,52.50
2018-12-19T03:56:36.166Z,52.60
2018-12-19T03:57:07.259Z,52.60
2018-12-19T03:57:38.348Z,52.60
2018-12-19T03:58:09.391Z,52.50
2018-12-19T03:58:40.460Z,52.60
2018-12-19T03:59:11.499Z,52.60
2018-12-19T03:59:42.583Z,52.60
2018-12-19T04:00:13.707Z,52.70
2018-12-19T04:00:44.849Z,52.70
2018-12-19T04:01:15.902Z,52.70
2018-12-19T04:01:46.970Z,52.70
2018-12-19T04:02:18.036Z,52.80
2018-12-19T04:02:49.096Z,52.80
2018-12-19T04:03:20.115Z,52.80
2018-12-19T04:03:51.160Z,52.80
2018-12-19T04:04:22.204Z,52.80
2018-12-19T04:04:53.240Z,52.90
2018-12-19T04:05:24.288Z,52.90
2018-12-19T04:05:55.426Z,52.90
2018-12-19T04:06:26.476Z,52.90
2018-12-19T04:06:57.595Z,52.80
2018-12-19T04:07:28.648Z,53.20
2018-12-19T04:07:59.693Z,52.90
2018-12-19T04:08:30.734Z,52.80
2018-12-19T04:09:01.771Z,52.80
2018-12-19T04:09:33.091Z,52.70
2018-12-19T04:10:04.532Z,52.70
2018-12-19T04:10:35.674Z,52.70
2018-12-19T04:11:06.704Z,52.70
2018-12-19T04:11:37.743Z,53.30
2018-12-19T04:12:08.787Z,52.60
2018-12-19T04:12:39.897Z,52.60
2018-12-19T04:13:10.957Z,52.60
2018-12-19T04:13:42.013Z,52.50
2018-12-19T04:14:13.145Z,52.60
2018-12-19T04:14:44.186Z,52.60
2018-12-19T04:15:15.266Z,52.50
2018-12-19T04:15:46.378Z,52.50
2018-12-19T04:16:17.504Z,52.50
2018-12-19T04:16:48.638Z,52.50
2018-12-19T04:17:19.720Z,52.50
2018-12-19T04:17:50.776Z,52.50
2018-12-19T04:18:21.819Z,52.50
2018-12-19T04:18:52.889Z,52.50
2018-12-19T04:19:23.931Z,52.50
2018-12-19T04:19:55.018Z,52.40
2018-12-19T04:20:26.140Z,52.40
2018-12-19T04:20:57.171Z,52.50
2018-12-19T04:21:28.212Z,52.90
2018-12-19T04:21:59.257Z,52.60
2018-12-19T04:22:30.373Z,52.50
2018-12-19T04:23:01.425Z,52.60
2018-12-19T04:23:32.548Z,52.60
2018-12-19T04:24:03.608Z,52.60
2018-12-19T04:24:34.654Z,52.60
2018-12-19T04:25:05.773Z,52.60
2018-12-19T04:25:36.910Z,53.30
2018-12-19T04:26:07.939Z,52.70
2018-12-19T04:26:38.999Z,52.70
2018-12-19T04:27:10.058Z,52.70
2018-12-19T04:27:41.251Z,52.70
2018-12-19T04:28:12.327Z,52.70
2018-12-19T04:28:43.358Z,52.70
2018-12-19T04:29:14.407Z,52.70
2018-12-19T04:29:45.444Z,52.70
2018-12-19T04:30:16.484Z,52.60
2018-12-19T04:30:47.607Z,52.70
2018-12-19T04:31:18.653Z,52.60
2018-12-19T04:31:49.767Z,52.60
2018-12-19T04:32:20.823Z,52.70
2018-12-19T04:32:51.947Z,52.70
2018-12-19T04:33:23.008Z,52.70
2018-12-19T04:33:54.141Z,52.70
2018-12-19T04:34:25.179Z,52.70
2018-12-19T04:34:56.282Z,52.70
2018-12-19T04:35:27.351Z,52.70
2018-12-19T04:35:58.396Z,52.70
2018-12-19T04:36:29.465Z,52.70
2018-12-19T04:37:00.518Z,52.60
2018-12-19T04:37:31.649Z,52.70
2018-12-19T04:38:02.719Z,52.60
2018-12-19T04:38:33.759Z,52.60
2018-12-19T04:39:04.834Z,52.70
2018-12-19T04:39:35.959Z,52.60
2018-12-19T04:40:43.962Z,52.60
2018-12-19T04:41:15.003Z,52.70
2018-12-19T04:41:46.044Z,52.60
2018-12-19T04:42:17.089Z,52.60
2018-12-19T04:42:48.141Z,52.60
2018-12-19T04:43:19.187Z,52.60
2018-12-19T04:43:50.233Z,52.60
2018-12-19T04:44:21.273Z,52.50
2018-12-19T04:44:52.396Z,52.50
2018-12-19T04:45:23.439Z,52.50
2018-12-19T04:45:54.483Z,52.60
2018-12-19T04:46:25.539Z,52.60
2018-12-19T04:46:56.574Z,53.20
2018-12-19T04:47:27.695Z,52.60
2018-12-19T04:47:58.807Z,52.50
2018-12-19T04:48:29.856Z,52.60
2018-12-19T04:49:00.907Z,52.70
2018-12-19T04:49:31.953Z,52.70
2018-12-19T04:50:02.998Z,52.60
2018-12-19T04:50:34.039Z,52.60
2018-12-19T04:51:05.084Z,52.60
2018-12-19T04:51:36.125Z,52.60
2018-12-19T04:52:07.168Z,52.60
2018-12-19T04:52:38.216Z,52.60
2018-12-19T04:53:09.255Z,52.60
2018-12-19T04:53:40.303Z,52.60
2018-12-19T04:54:11.339Z,52.60
2018-12-19T04:54:42.385Z,52.60
2018-12-19T04:55:13.428Z,53.00
2018-12-19T04:55:44.463Z,52.70
2018-12-19T04:56:15.508Z,52.60
2018-12-19T04:56:46.546Z,52.70
2018-12-19T04:57:17.588Z,52.70
2018-12-19T04:57:48.659Z,52.70
2018-12-19T04:58:19.703Z,52.70
2018-12-19T04:58:50.753Z,52.70
2018-12-19T04:59:21.794Z,52.70
2018-12-19T04:59:52.827Z,52.70
2018-12-19T05:00:23.877Z,52.80
2018-12-19T05:00:54.939Z,52.80
2018-12-19T05:01:25.996Z,52.80
2018-12-19T05:01:57.050Z,52.80
2018-12-19T05:02:28.088Z,52.90
2018-12-19T05:02:59.132Z,52.80
2018-12-19T05:03:30.204Z,52.90
2018-12-19T05:04:01.232Z,52.80
2018-12-19T05:04:32.272Z,52.80
2018-12-19T05:05:03.311Z,52.80
2018-12-19T05:05:34.362Z,52.80
2018-12-19T05:06:05.404Z,52.80
2018-12-19T05:06:36.532Z,52.80
2018-12-19T05:07:07.650Z,52.80
2018-12-19T05:07:38.696Z,52.80
2018-12-19T05:08:09.736Z,52.80
2018-12-19T05:08:40.792Z,52.80
2018-12-19T05:09:11.838Z,52.70
2018-12-19T05:09:42.871Z,52.70
2018-12-19T05:10:13.916Z,52.70
2018-12-19T05:10:44.991Z,52.80
2018-12-19T05:11:16.112Z,52.80
2018-12-19T05:11:47.153Z,52.70
2018-12-19T05:12:18.228Z,52.70
2018-12-19T05:12:49.271Z,52.70
2018-12-19T05:13:20.312Z,52.90
2018-12-19T05:13:51.367Z,52.80
2018-12-19T05:14:22.422Z,52.80
2018-12-19T05:14:53.536Z,52.80
2018-12-19T05:15:24.576Z,52.70
2018-12-19T05:15:55.620Z,52.70
2018-12-19T05:16:26.661Z,52.70
2018-12-19T05:16:57.695Z,52.20
2018-12-19T05:17:28.750Z,52.70
2018-12-19T05:17:59.795Z,52.70
2018-12-19T05:18:30.830Z,52.70
2018-12-19T05:19:01.879Z,52.70
2018-12-19T05:19:33.011Z,52.70
2018-12-19T05:20:04.032Z,52.70
2018-12-19T05:20:35.071Z,52.70
2018-12-19T05:21:06.115Z,52.70
2018-12-19T05:21:37.160Z,52.70
2018-12-19T05:22:08.196Z,52.70
2018-12-19T05:22:39.267Z,52.70
2018-12-19T05:23:10.312Z,52.70
2018-12-19T05:23:41.359Z,52.70
2018-12-19T05:24:12.412Z,52.80
2018-12-19T05:24:43.447Z,52.80
2018-12-19T05:25:14.504Z,52.80
2018-12-19T05:25:45.543Z,52.90
2018-12-19T05:26:16.580Z,52.80
2018-12-19T05:26:47.717Z,53.40
2018-12-19T05:27:18.730Z,52.90
2018-12-19T05:27:49.779Z,52.90
2018-12-19T05:28:20.828Z,52.90
2018-12-19T05:28:51.867Z,52.90
2018-12-19T05:29:22.955Z,52.90
2018-12-19T05:29:53.980Z,52.90
2018-12-19T05:30:25.023Z,52.90
2018-12-19T05:30:56.068Z,53.00
2018-12-19T05:31:27.107Z,53.00
2018-12-19T05:31:58.171Z,53.00
2018-12-19T05:32:29.227Z,53.00
2018-12-19T05:33:00.280Z,53.00
2018-12-19T05:33:31.328Z,53.00
2018-12-19T05:34:02.375Z,53.00
2018-12-19T05:34:33.430Z,53.00
2018-12-19T05:35:04.496Z,53.00
2018-12-19T05:35:35.515Z,53.00
2018-12-19T05:36:06.571Z,52.90
2018-12-19T05:36:37.689Z,52.90
2018-12-19T05:37:08.803Z,52.80
2018-12-19T05:37:39.846Z,52.80
2018-12-19T05:38:10.901Z,52.90
2018-12-19T05:38:41.936Z,52.80
2018-12-19T05:39:13.055Z,52.80
2018-12-19T05:39:44.107Z,52.80
2018-12-19T05:40:18.809Z,52.80
2018-12-19T05:40:48.167Z,52.80
2018-12-19T05:41:19.215Z,52.80
2018-12-19T05:41:50.254Z,52.80
2018-12-19T05:42:21.318Z,52.80
2018-12-19T05:42:52.383Z,52.80
2018-12-19T05:43:23.452Z,52.80
2018-12-19T05:43:54.589Z,52.80
2018-12-19T05:44:25.616Z,52.80
2018-12-19T05:44:56.664Z,52.70
2018-12-19T05:45:27.735Z,52.80
2018-12-19T05:45:58.771Z,52.70
2018-12-19T05:46:29.811Z,52.70
2018-12-19T05:47:00.860Z,52.70
2018-12-19T05:47:31.895Z,52.80
2018-12-19T05:48:02.943Z,52.80
2018-12-19T05:48:33.990Z,52.80
2018-12-19T05:49:05.027Z,52.80
2018-12-19T05:49:36.080Z,52.80
2018-12-19T05:50:07.135Z,52.80
2018-12-19T05:50:38.159Z,52.80
2018-12-19T05:51:09.215Z,52.80
2018-12-19T05:51:40.240Z,52.90
2018-12-19T05:52:11.279Z,52.90
2018-12-19T05:52:42.320Z,52.90
2018-12-19T05:53:13.391Z,52.90
2018-12-19T05:53:44.441Z,52.90
2018-12-19T05:54:15.483Z,53.00
2018-12-19T05:54:46.611Z,53.00
2018-12-19T05:55:17.651Z,53.00
2018-12-19T05:55:48.689Z,53.00
2018-12-19T05:56:19.727Z,53.10
2018-12-19T05:56:50.764Z,53.00
2018-12-19T05:57:21.803Z,53.00
2018-12-19T05:57:52.922Z,53.10
2018-12-19T05:58:23.971Z,53.00
2018-12-19T05:58:55.017Z,52.60
2018-12-19T05:59:26.060Z,53.00
2018-12-19T05:59:57.111Z,53.00
2018-12-19T06:00:28.151Z,52.90
2018-12-19T06:00:59.186Z,52.90
2018-12-19T06:01:30.223Z,52.90
2018-12-19T06:02:01.271Z,52.90
2018-12-19T06:02:32.315Z,52.90
2018-12-19T06:03:03.358Z,52.90
2018-12-19T06:03:34.674Z,52.90
2018-12-19T06:04:05.733Z,52.90
2018-12-19T06:04:36.770Z,52.90
2018-12-19T06:05:07.862Z,52.90
2018-12-19T06:05:38.945Z,52.90
2018-12-19T06:06:09.983Z,52.80
2018-12-19T06:06:41.027Z,53.50
2018-12-19T06:07:12.071Z,52.90
2018-12-19T06:07:43.722Z,52.90
2018-12-19T06:08:14.840Z,52.80
2018-12-19T06:08:45.883Z,52.80
2018-12-19T06:09:16.919Z,52.80
2018-12-19T06:09:47.963Z,52.80
2018-12-19T06:10:26.002Z,52.90
2018-12-19T06:10:52.045Z,52.80
2018-12-19T06:11:23.131Z,52.80
2018-12-19T06:11:54.172Z,52.90
2018-12-19T06:12:25.208Z,52.90
2018-12-19T06:12:56.244Z,52.90
2018-12-19T06:13:27.287Z,52.90
2018-12-19T06:13:58.327Z,52.90
2018-12-19T06:14:29.443Z,52.90
2018-12-19T06:15:00.504Z,52.90
2018-12-19T06:15:31.544Z,52.90
2018-12-19T06:16:02.591Z,52.90
2018-12-19T06:16:33.632Z,53.00
2018-12-19T06:17:04.675Z,52.90
2018-12-19T06:17:35.723Z,53.00
2018-12-19T06:18:06.763Z,53.00
2018-12-19T06:18:37.799Z,53.00
2018-12-19T06:19:08.839Z,53.00
2018-12-19T06:19:39.899Z,53.00
2018-12-19T06:20:10.943Z,53.10
2018-12-19T06:20:41.984Z,53.00
2018-12-19T06:21:13.026Z,53.10
2018-12-19T06:21:44.068Z,53.10
2018-12-19T06:22:15.111Z,53.10
2018-12-19T06:22:46.155Z,53.10
2018-12-19T06:23:17.191Z,53.10
2018-12-19T06:23:48.236Z,53.10
2018-12-19T06:24:19.275Z,53.10
2018-12-19T06:24:50.316Z,53.00
2018-12-19T06:25:21.380Z,53.00
2018-12-19T06:25:52.508Z,53.00
2018-12-19T06:26:23.540Z,53.00
2018-12-19T06:26:54.584Z,53.00
2018-12-19T06:27:25.635Z,53.00
2018-12-19T06:27:56.673Z,53.00
2018-12-19T06:28:27.715Z,53.00
2018-12-19T06:28:58.757Z,52.90
2018-12-19T06:29:29.791Z,53.00
2018-12-19T06:30:00.836Z,53.00
2018-12-19T06:30:31.889Z,53.00
2018-12-19T06:31:03.011Z,53.00
2018-12-19T06:31:34.054Z,53.00
2018-12-19T06:32:05.092Z,53.00
2018-12-19T06:32:36.135Z,53.00
2018-12-19T06:33:07.176Z,53.00
2018-12-19T06:33:38.216Z,53.00
2018-12-19T06:34:09.264Z,53.00
2018-12-19T06:34:40.298Z,52.90
2018-12-19T06:35:11.391Z,53.00
2018-12-19T06:35:42.434Z,53.00
2018-12-19T06:36:13.483Z,52.90
2018-12-19T06:36:44.522Z,53.00
2018-12-19T06:37:15.559Z,53.60
2018-12-19T06:37:46.600Z,53.00
2018-12-19T06:38:17.636Z,53.00
2018-12-19T06:38:48.676Z,53.00
2018-12-19T06:39:19.715Z,53.10
2018-12-19T06:39:50.768Z,53.10
2018-12-19T06:40:21.803Z,53.20
2018-12-19T06:40:52.855Z,53.10